Time;durP1;ratioP1;P1;durP2;ratioP2;P2;SDS_P1;SDS_P2;PMS_P1;PMS_P2;Temp;Humidity;BMP_temperature;BMP_pressure;BME280_temperature;BME280_humidity;BME280_pressure;Samples;Min_cycle;Max_cycle;Signal;HPM_P1;HPM_P2
2022/02/03 00:00:36;;;;;;;;;;;;;;;;;;4990298;28;20557;-66
2022/02/03 00:03:25;;;;;;;;;;;;;;;;;;4978074;28;19967;-68
2022/02/03 00:06:11;;;;;;;;;;;;;;;;;;4979027;28;20019;-68
2022/02/03 00:25:34;;;;;;;;;;;;;;;;;;4957367;28;20141;-68
2022/02/03 00:28:09;;;;;;;;;;;;;;;;;;4953615;28;19969;-68
2022/02/03 00:33:20;;;;;;;;;;;;;;;;;;4953928;28;19973;-68
2022/02/03 00:50:11;;;;;;;;;;;;;;;;;;4890323;29;20070;-67
2022/02/03 00:52:38;;;;;;;;;;;;;;;;;;4891711;29;19942;-68
2022/02/03 00:55:24;;;;;;;;;;;;;;;;;;4929744;28;19921;-68
2022/02/03 00:57:50;;;;;;;;;;;;;;;;;;4927185;28;19922;-68
2022/02/03 01:00:17;;;;;;;;;;;;;;;;;;4940113;28;19960;-68
2022/02/03 01:03:04;;;;;;;;;;;;;;;;;;4924641;28;19977;-68
2022/02/03 01:05:30;;;;;;;;;;;;;;;;;;4925282;28;19941;-67
2022/02/03 01:07:56;;;;;;;;;;;;;;;;;;4927385;28;20033;-67
2022/02/03 01:10:30;;;;;;;;;;;;;;;;;;4913051;28;19921;-67
2022/02/03 01:13:25;;;;;;;;;;;;;;;;;;4923899;28;19953;-67
2022/02/03 01:16:21;;;;;;;;;;;;;;;;;;5004121;28;20336;-67
2022/02/03 01:21:59;;;;;;;;;;;;;;;;;;5005025;28;19919;-67
2022/02/03 01:43:39;;;;;;;;;;;;;;;;;;4949552;28;19924;-65
2022/02/03 01:46:27;;;;;;;;;;;;;;;;;;4944613;28;19918;-64
2022/02/03 01:49:14;;;;;;;;;;;;;;;;;;4942876;28;19934;-64
2022/02/03 01:51:44;;;;;;;;;;;;;;;;;;4928027;28;20020;-65
2022/02/03 01:54:28;;;;;;;;;;;;;;;;;;4949756;28;19941;-66
2022/02/03 01:56:55;;;;;;;;;;;;;;;;;;4952274;28;19956;-65
2022/02/03 01:59:21;;;;;;;;;;;;;;;;;;4929926;28;19926;-65
2022/02/03 02:01:47;;;;;;;;;;;;;;;;;;4936169;28;19992;-65
2022/02/03 02:04:13;;;;;;;;;;;;;;;;;;4973607;28;20810;-65
2022/02/03 02:06:39;;;;;;;;;;;;;;;;;;5007438;28;19921;-65
2022/02/03 02:09:07;;;;;;;;;;;;;;;;;;4987890;28;19971;-65
2022/02/03 02:11:40;;;;;;;;;;;;;;;;;;5008429;28;19913;-66
2022/02/03 02:39:11;;;;;;;;;;;;;;;;;;5010934;28;21803;-64
2022/02/03 02:44:12;;;;;;;;;;;;;;;;;;5007560;28;19948;-64
2022/02/03 02:46:38;;;;;;;;;;;;;;;;;;5011105;28;19917;-64
2022/02/03 02:49:10;;;;;;;;;;;;;;;;;;5008176;28;19940;-67
2022/02/03 02:51:37;;;;;;;;;;;;;;;;;;5013362;28;20366;-65
2022/02/03 02:56:47;;;;;;;;;;;;;;;;;;5016781;28;19913;-65
2022/02/03 03:37:44;;;;;;;;;;;;;;;;;;4859785;29;20006;-64
2022/02/03 03:40:11;;;;;;;;;;;;;;;;;;4854596;29;19920;-65
2022/02/03 03:42:45;;;;;;;;;;;;;;;;;;4856663;29;19935;-64
2022/02/03 03:45:11;;;;;;;;;;;;;;;;;;4856235;29;20770;-65
2022/02/03 03:47:37;;;;;;;;;;;;;;;;;;4857374;29;19972;-65
2022/02/03 03:50:04;;;;;;;;;;;;;;;;;;4852399;29;19924;-64
2022/02/03 03:52:31;;;;;;;;;;;;;;;;;;4860890;29;19970;-64
2022/02/03 03:55:11;;;;;;;;;;;;;;;;;;4852577;29;20332;-65
2022/02/03 03:58:00;;;;;;;;;;;;;;;;;;4854776;29;20422;-64
2022/02/03 04:44:46;;;;;;;;;;;;;;;;;;4945234;28;19989;-64
2022/02/03 04:53:21;;;;;;;;;;;;;;;;;;4950131;28;19921;-65
2022/02/03 05:03:02;;;;;;;;;;;;;;;;;;4949410;28;19937;-64
2022/02/03 05:05:56;;;;;;;;;;;;;;;;;;4950181;28;19930;-64
2022/02/03 05:08:40;;;;;;;;;;;;;;;;;;4953347;28;20327;-64
2022/02/03 05:32:32;;;;;;;;;;;;;;;;;;4925756;28;19918;-64
2022/02/03 06:04:14;;;;;;;;;;;;;;;;;;5008105;28;19917;-64
2022/02/03 06:07:20;;;;;;;;;;;;;;;;;;5006671;28;20019;-64
2022/02/03 06:15:16;;;;;;;;;;;;;;;;;;5006646;28;20697;-64
2022/02/03 06:17:50;;;;;;;;;;;;;;;;;;5006084;28;19971;-64
2022/02/03 06:23:06;;;;;;;;;;;;;;;;;;5008613;28;20123;-64
2022/02/03 06:28:18;;;;;;;;;;;;;;;;;;4962057;28;20291;-64
2022/02/03 06:30:44;;;;;;;;;;;;;;;;;;5008052;28;19912;-64
2022/02/03 06:33:11;;;;;;;;;;;;;;;;;;5003302;28;20713;-64
2022/02/03 06:35:37;;;;;;;;;;;;;;;;;;5006694;28;19913;-64
2022/02/03 06:38:03;;;;;;;;;;;;;;;;;;4988259;28;19920;-64
2022/02/03 06:40:29;;;;;;;;;;;;;;;;;;4990109;28;20317;-66
2022/02/03 06:42:58;;;;;;;;;;;;;;;;;;5009464;28;19913;-64
2022/02/03 06:48:07;;;;;;;;;;;;;;;;;;5005769;28;19998;-64
2022/02/03 06:50:47;;;;;;;;;;;;;;;;;;4988035;28;20251;-64
2022/02/03 06:53:17;;;;;;;;;;;;;;;;;;5006397;28;19927;-64
2022/02/03 06:56:01;;;;;;;;;;;;;;;;;;5007755;28;19991;-64
2022/02/03 06:58:37;;;;;;;;;;;;;;;;;;4991294;28;19925;-64
2022/02/03 07:01:45;;;;;;;;;;;;;;;;;;5007409;28;19923;-64
2022/02/03 07:04:02;;;;;;;;;;;;;;;;;;4999051;28;19968;-63
2022/02/03 07:06:32;;;;;;;;;;;;;;;;;;5004581;28;19932;-66
2022/02/03 07:08:59;;;;;;;;;;;;;;;;;;4993804;28;19913;-64
2022/02/03 07:11:25;;;;;;;;;;;;;;;;;;5008254;28;19988;-64
2022/02/03 07:13:51;;;;;;;;;;;;;;;;;;5007769;28;20271;-64
2022/02/03 07:16:17;;;;;;;;;;;;;;;;;;5006444;28;19945;-65
2022/02/03 07:18:43;;;;;;;;;;;;;;;;;;5006534;28;20019;-65
2022/02/03 07:21:12;;;;;;;;;;;;;;;;;;5001557;28;19913;-65
2022/02/03 07:23:39;;;;;;;;;;;;;;;;;;4996966;28;19913;-67
2022/02/03 07:26:07;;;;;;;;;;;;;;;;;;5007292;28;19917;-65
2022/02/03 07:28:36;;;;;;;;;;;;;;;;;;5007382;28;19966;-66
2022/02/03 07:31:02;;;;;;;;;;;;;;;;;;4999802;28;20662;-65
2022/02/03 07:33:30;;;;;;;;;;;;;;;;;;5012597;28;19920;-65
2022/02/03 07:35:56;;;;;;;;;;;;;;;;;;4996578;28;20011;-66
2022/02/03 07:38:23;;;;;;;;;;;;;;;;;;5012766;28;19963;-65
2022/02/03 07:40:49;;;;;;;;;;;;;;;;;;5008333;28;20130;-65
2022/02/03 07:43:15;;;;;;;;;;;;;;;;;;4994284;28;19968;-65
2022/02/03 07:45:41;;;;;;;;;;;;;;;;;;5011065;28;20019;-65
2022/02/03 07:48:07;;;;;;;;;;;;;;;;;;5007547;28;20485;-65
2022/02/03 07:50:33;;;;;;;;;;;;;;;;;;5010584;28;19991;-65
2022/02/03 07:52:59;;;;;;;;;;;;;;;;;;5006768;28;19919;-65
2022/02/03 07:55:25;;;;;;;;;;;;;;;;;;4992941;28;19913;-64
2022/02/03 07:57:51;;;;;;;;;;;;;;;;;;4985895;28;20013;-65
2022/02/03 08:00:17;;;;;;;;;;;;;;;;;;4994220;28;19917;-65
2022/02/03 08:02:44;;;;;;;;;;;;;;;;;;4997727;28;19917;-65
2022/02/03 08:05:10;;;;;;;;;;;;;;;;;;4991380;28;20446;-65
2022/02/03 08:07:36;;;;;;;;;;;;;;;;;;4976340;28;19921;-65
2022/02/03 08:10:15;;;;;;;;;;;;;;;;;;4993242;28;19960;-65
2022/02/03 08:12:41;;;;;;;;;;;;;;;;;;4992360;28;19946;-65
2022/02/03 08:15:09;;;;;;;;;;;;;;;;;;4992960;28;19916;-65
2022/02/03 08:17:38;;;;;;;;;;;;;;;;;;4989201;28;19943;-65
2022/02/03 08:20:09;;;;;;;;;;;;;;;;;;4994537;28;20004;-65
2022/02/03 08:22:56;;;;;;;;;;;;;;;;;;4992437;28;19920;-65
2022/02/03 08:25:26;;;;;;;;;;;;;;;;;;4992755;28;19952;-65
2022/02/03 08:30:45;;;;;;;;;;;;;;;;;;4991699;28;19955;-65
2022/02/03 08:33:17;;;;;;;;;;;;;;;;;;4988830;28;19912;-63
2022/02/03 08:35:47;;;;;;;;;;;;;;;;;;4986061;28;19913;-63
2022/02/03 08:43:11;;;;;;;;;;;;;;;;;;4998457;28;19957;-64
2022/02/03 08:45:37;;;;;;;;;;;;;;;;;;4977627;28;19991;-64
2022/02/03 08:48:03;;;;;;;;;;;;;;;;;;4987341;28;20011;-64
2022/02/03 08:50:29;;;;;;;;;;;;;;;;;;4986366;28;19955;-64
2022/02/03 08:53:10;;;;;;;;;;;;;;;;;;4991632;28;19917;-64
2022/02/03 09:58:00;;;;;;;;;;;;;;;;;;4936388;28;19965;-66
2022/02/03 10:00:27;;;;;;;;;;;;;;;;;;4931916;28;20293;-65
2022/02/03 10:02:53;;;;;;;;;;;;;;;;;;4935336;28;19918;-66
2022/02/03 10:05:31;;;;;;;;;;;;;;;;;;4933374;28;20012;-65
2022/02/03 10:07:58;;;;;;;;;;;;;;;;;;4932071;28;20068;-65
2022/02/03 10:10:25;;;;;;;;;;;;;;;;;;4934449;28;19946;-65
2022/02/03 10:12:53;;;;;;;;;;;;;;;;;;4933751;28;20282;-66
2022/02/03 10:15:20;;;;;;;;;;;;;;;;;;4929474;28;19914;-66
2022/02/03 10:17:48;;;;;;;;;;;;;;;;;;4933574;28;20070;-65
2022/02/03 10:20:16;;;;;;;;;;;;;;;;;;4954914;28;19917;-65
2022/02/03 10:22:42;;;;;;;;;;;;;;;;;;5008151;28;20284;-66
2022/02/03 10:25:13;;;;;;;;;;;;;;;;;;4989377;28;19920;-65
2022/02/03 10:27:40;;;;;;;;;;;;;;;;;;5007518;28;20004;-65
2022/02/03 10:30:06;;;;;;;;;;;;;;;;;;4988058;28;19913;-65
2022/02/03 10:32:32;;;;;;;;;;;;;;;;;;4995357;28;19992;-65
2022/02/03 10:35:00;;;;;;;;;;;;;;;;;;5005616;28;20138;-66
2022/02/03 10:37:36;;;;;;;;;;;;;;;;;;4993008;28;19913;-66
2022/02/03 10:43:47;;;;;;;;;;;;;;;;;;5008533;28;20397;-64
2022/02/03 10:45:56;;;;;;;;;;;;;;;;;;4997219;28;19913;-64
2022/02/03 11:02:13;;;;;;;;;;;;;;;;;;4937538;28;20012;-66
2022/02/03 11:07:45;;;;;;;;;;;;;;;;;;4932308;28;19978;-67
2022/02/03 11:13:01;;;;;;;;;;;;;;;;;;4931681;28;19981;-67
2022/02/03 11:15:27;;;;;;;;;;;;;;;;;;4934776;28;19929;-67
2022/02/03 11:17:54;;;;;;;;;;;;;;;;;;4935253;28;19914;-67
2022/02/03 11:20:21;;;;;;;;;;;;;;;;;;4933745;28;19922;-67
2022/02/03 11:23:07;;;;;;;;;;;;;;;;;;4934058;28;20464;-67
2022/02/03 11:31:19;;;;;;;;;;;;;;;;;;4933767;28;19914;-68
2022/02/03 11:34:46;;;;;;;;;;;;;;;;;;4934343;28;20658;-68
2022/02/03 11:37:19;;;;;;;;;;;;;;;;;;4963120;28;20379;-68
2022/02/03 11:42:29;;;;;;;;;;;;;;;;;;4990207;28;19913;-68
2022/02/03 11:48:00;;;;;;;;;;;;;;;;;;4989672;28;19928;-68
2022/02/03 11:58:58;;;;;;;;;;;;;;;;;;5000154;28;19920;-68
2022/02/03 12:13:32;;;;;;;;;;;;;;;;;;4885787;29;20013;-70
2022/02/03 12:15:51;;;;;;;;;;;;;;;;;;4891277;29;19915;-65
2022/02/03 12:18:44;;;;;;;;;;;;;;;;;;4886512;29;19995;-66
2022/02/03 12:21:10;;;;;;;;;;;;;;;;;;4885346;29;19915;-67
2022/02/03 12:26:37;;;;;;;;;;;;;;;;;;4890681;29;20631;-67
2022/02/03 12:29:18;;;;;;;;;;;;;;;;;;4891042;29;19985;-70
2022/02/03 12:32:05;;;;;;;;;;;;;;;;;;4893915;29;19990;-69
2022/02/03 12:40:32;;;;;;;;;;;;;;;;;;4907487;29;20556;-70
2022/02/03 12:42:57;;;;;;;;;;;;;;;;;;4989541;28;19917;-70
2022/02/03 12:45:27;;;;;;;;;;;;;;;;;;5005056;28;19968;-72
2022/02/03 12:47:53;;;;;;;;;;;;;;;;;;5008783;28;19924;-70
2022/02/03 12:50:19;;;;;;;;;;;;;;;;;;5002066;28;20012;-70
2022/02/03 12:52:45;;;;;;;;;;;;;;;;;;5003337;28;19924;-70
2022/02/03 12:55:11;;;;;;;;;;;;;;;;;;5003663;28;19921;-70
2022/02/03 12:57:37;;;;;;;;;;;;;;;;;;5004196;28;19917;-69
2022/02/03 13:00:04;;;;;;;;;;;;;;;;;;4984967;28;19913;-70
2022/02/03 13:02:31;;;;;;;;;;;;;;;;;;4998258;28;21345;-68
2022/02/03 13:04:57;;;;;;;;;;;;;;;;;;5000366;28;19909;-69
2022/02/03 13:07:29;;;;;;;;;;;;;;;;;;4988936;28;20406;-68
2022/02/03 13:09:55;;;;;;;;;;;;;;;;;;4998122;28;19921;-69
2022/02/03 13:12:28;;;;;;;;;;;;;;;;;;4997081;28;19913;-68
2022/02/03 13:14:57;;;;;;;;;;;;;;;;;;5004330;28;20018;-66
2022/02/03 13:17:31;;;;;;;;;;;;;;;;;;5001663;28;20048;-67
2022/02/03 13:20:03;;;;;;;;;;;;;;;;;;4997350;28;19948;-68
2022/02/03 13:23:06;;;;;;;;;;;;;;;;;;4998343;28;19917;-67
2022/02/03 13:28:10;;;;;;;;;;;;;;;;;;4998054;28;20308;-68
2022/02/03 13:33:24;;;;;;;;;;;;;;;;;;4995874;28;19913;-67
2022/02/03 13:36:05;;;;;;;;;;;;;;;;;;5000010;28;19963;-68
2022/02/03 13:39:00;;;;;;;;;;;;;;;;;;5001686;28;20474;-67
2022/02/03 13:41:27;;;;;;;;;;;;;;;;;;5002362;28;19913;-68
2022/02/03 13:44:00;;;;;;;;;;;;;;;;;;5000416;28;19913;-67
2022/02/03 13:46:26;;;;;;;;;;;;;;;;;;5001623;28;20268;-67
2022/02/03 13:48:52;;;;;;;;;;;;;;;;;;4999885;28;19920;-67
2022/02/03 13:51:18;;;;;;;;;;;;;;;;;;4997537;28;19966;-67
2022/02/03 14:11:35;;;;;;;;;;;;;;;;;;5008455;28;20054;-67
2022/02/03 14:13:54;;;;;;;;;;;;;;;;;;5006495;28;20497;-67
2022/02/03 14:21:47;;;;;;;;;;;;;;;;;;4929854;28;19915;-67
2022/02/03 14:27:15;;;;;;;;;;;;;;;;;;4924796;28;19949;-67
2022/02/03 14:29:51;;;;;;;;;;;;;;;;;;4928679;28;20583;-67
2022/02/03 14:32:27;;;;;;;;;;;;;;;;;;4919960;28;20557;-66
2022/02/03 14:35:08;;;;;;;;;;;;;;;;;;4932498;28;20083;-67
2022/02/03 14:42:38;;;;;;;;;;;;;;;;;;4935584;28;19973;-66
2022/02/03 14:45:21;;;;;;;;;;;;;;;;;;4933081;28;19914;-67
2022/02/03 14:47:47;;;;;;;;;;;;;;;;;;4935124;28;20376;-67
2022/02/03 14:50:13;;;;;;;;;;;;;;;;;;4931228;28;19996;-66
2022/02/03 14:52:59;;;;;;;;;;;;;;;;;;4936210;28;20001;-66
2022/02/03 14:58:29;;;;;;;;;;;;;;;;;;4944401;28;19933;-66
2022/02/03 15:01:21;;;;;;;;;;;;;;;;;;4990052;28;20039;-66
2022/02/03 15:03:47;;;;;;;;;;;;;;;;;;4990258;28;19913;-66
2022/02/03 15:06:22;;;;;;;;;;;;;;;;;;4988393;28;19928;-66
2022/02/03 15:09:08;;;;;;;;;;;;;;;;;;4989233;28;19925;-67
2022/02/03 15:11:54;;;;;;;;;;;;;;;;;;4978958;28;19921;-67
2022/02/03 15:14:21;;;;;;;;;;;;;;;;;;4990997;28;19913;-67
2022/02/03 15:16:47;;;;;;;;;;;;;;;;;;4991924;28;19917;-67
2022/02/03 15:19:13;;;;;;;;;;;;;;;;;;4988969;28;19924;-67
2022/02/03 15:21:40;;;;;;;;;;;;;;;;;;4990228;28;19914;-66
2022/02/03 15:24:06;;;;;;;;;;;;;;;;;;4986715;28;20622;-66
2022/02/03 15:26:32;;;;;;;;;;;;;;;;;;4978625;28;19917;-67
2022/02/03 15:28:58;;;;;;;;;;;;;;;;;;4983787;28;19914;-66
2022/02/03 15:31:32;;;;;;;;;;;;;;;;;;4973184;28;19918;-66
2022/02/03 15:34:06;;;;;;;;;;;;;;;;;;4983049;28;19914;-66
2022/02/03 15:36:35;;;;;;;;;;;;;;;;;;4986861;28;19920;-66
2022/02/03 15:39:07;;;;;;;;;;;;;;;;;;4985432;28;19960;-66
2022/02/03 15:41:35;;;;;;;;;;;;;;;;;;4985391;28;20447;-67
2022/02/03 15:44:02;;;;;;;;;;;;;;;;;;4981007;28;19997;-67
2022/02/03 15:46:31;;;;;;;;;;;;;;;;;;4986712;28;19917;-67
2022/02/03 15:49:10;;;;;;;;;;;;;;;;;;4980761;28;20726;-67
2022/02/03 15:57:47;;;;;;;;;;;;;;;;;;4988540;28;20043;-69
2022/02/03 16:00:46;;;;;;;;;;;;;;;;;;5001082;28;19919;-67
2022/02/03 16:03:07;;;;;;;;;;;;;;;;;;5006338;28;19920;-67
2022/02/03 16:19:16;;;;;;;;;;;;;;;;;;5003024;28;19974;-67
2022/02/03 16:21:51;;;;;;;;;;;;;;;;;;4989457;28;19913;-66
2022/02/03 16:52:36;;;;;;;;;;;;;;;;;;5008999;28;19919;-66
2022/02/03 16:54:35;;;;;;;;;;;;;;;;;;5001508;28;20747;-67
2022/02/03 16:57:08;;;;;;;;;;;;;;;;;;4988104;28;19925;-66
2022/02/03 16:59:42;;;;;;;;;;;;;;;;;;5006924;28;19960;-67
2022/02/03 17:02:09;;;;;;;;;;;;;;;;;;5000811;28;20578;-66
2022/02/03 17:04:36;;;;;;;;;;;;;;;;;;5004042;28;20012;-66
2022/02/03 17:07:03;;;;;;;;;;;;;;;;;;5004279;28;19921;-67
2022/02/03 17:09:33;;;;;;;;;;;;;;;;;;4993059;28;20493;-66
2022/02/03 17:11:59;;;;;;;;;;;;;;;;;;5003106;28;19909;-67
2022/02/03 17:14:28;;;;;;;;;;;;;;;;;;4993364;28;19921;-67
2022/02/03 17:16:55;;;;;;;;;;;;;;;;;;4985780;28;20390;-66
2022/02/03 17:19:22;;;;;;;;;;;;;;;;;;4998981;28;19970;-66
2022/02/03 17:21:50;;;;;;;;;;;;;;;;;;5000228;28;20022;-67
2022/02/03 17:24:17;;;;;;;;;;;;;;;;;;4989679;28;19998;-67
2022/02/03 17:32:11;;;;;;;;;;;;;;;;;;5007633;28;19909;-67
2022/02/03 18:19:37;;;;;;;;;;;;;;;;;;5000809;28;19966;-67
2022/02/03 18:32:41;;;;;;;;;;;;;;;;;;5004555;28;19927;-67
2022/02/03 18:45:44;;;;;;;;;;;;;;;;;;5002493;28;19935;-67
2022/02/03 18:51:38;;;;;;;;;;;;;;;;;;5006509;28;20303;-66
2022/02/03 18:59:43;;;;;;;;;;;;;;;;;;5000304;28;19936;-67
2022/02/03 19:16:11;;;;;;;;;;;;;;;;;;4997814;28;19943;-66
2022/02/03 19:26:44;;;;;;;;;;;;;;;;;;5002792;28;20280;-66
2022/02/03 20:02:38;;;;;;;;;;;;;;;;;;5006148;28;20295;-69
2022/02/03 20:10:20;;;;;;;;;;;;;;;;;;5006832;28;19983;-69
2022/02/03 20:12:47;;;;;;;;;;;;;;;;;;5010598;28;19951;-68
2022/02/03 20:15:22;;;;;;;;;;;;;;;;;;5005042;28;19917;-69
2022/02/03 20:17:48;;;;;;;;;;;;;;;;;;5010294;28;19913;-69
2022/02/03 20:20:14;;;;;;;;;;;;;;;;;;4986899;28;19913;-69
2022/02/03 20:22:40;;;;;;;;;;;;;;;;;;5006610;28;19935;-69
2022/02/03 20:25:07;;;;;;;;;;;;;;;;;;4989273;28;19917;-68
2022/02/03 20:27:33;;;;;;;;;;;;;;;;;;4992404;28;20009;-69
2022/02/03 20:30:00;;;;;;;;;;;;;;;;;;5002445;28;19920;-68
2022/02/03 20:32:29;;;;;;;;;;;;;;;;;;5009615;28;19940;-69
2022/02/03 20:35:07;;;;;;;;;;;;;;;;;;5010923;28;19909;-69
2022/02/03 20:37:41;;;;;;;;;;;;;;;;;;5009214;28;19917;-68
2022/02/03 20:40:07;;;;;;;;;;;;;;;;;;5013703;28;20738;-70
2022/02/03 20:42:33;;;;;;;;;;;;;;;;;;5014884;28;20011;-68
2022/02/03 20:44:59;;;;;;;;;;;;;;;;;;5007335;28;19920;-69
2022/02/03 20:47:27;;;;;;;;;;;;;;;;;;4996252;28;19955;-68
2022/02/03 20:50:02;;;;;;;;;;;;;;;;;;5012222;28;19917;-69
2022/02/03 20:52:28;;;;;;;;;;;;;;;;;;4993949;28;20609;-69
2022/02/03 20:54:54;;;;;;;;;;;;;;;;;;5014515;28;20359;-69
2022/02/03 20:57:21;;;;;;;;;;;;;;;;;;5004454;28;19913;-69
2022/02/03 21:02:52;;;;;;;;;;;;;;;;;;5007704;28;19913;-69
2022/02/03 21:05:18;;;;;;;;;;;;;;;;;;4989557;28;19927;-68
2022/02/03 21:07:45;;;;;;;;;;;;;;;;;;4991943;28;19924;-68
2022/02/03 21:10:13;;;;;;;;;;;;;;;;;;5007247;28;19947;-69
2022/02/03 21:12:58;;;;;;;;;;;;;;;;;;5004423;28;19982;-69
2022/02/03 21:15:28;;;;;;;;;;;;;;;;;;5007867;28;20016;-68
2022/02/03 21:18:13;;;;;;;;;;;;;;;;;;5003318;28;20360;-69
2022/02/03 21:20:39;;;;;;;;;;;;;;;;;;5007976;28;19921;-68
2022/02/03 21:23:05;;;;;;;;;;;;;;;;;;5008139;28;20027;-69
2022/02/03 21:28:35;;;;;;;;;;;;;;;;;;4965114;28;19925;-69
2022/02/03 21:31:02;;;;;;;;;;;;;;;;;;4966468;28;19953;-70
2022/02/03 21:33:46;;;;;;;;;;;;;;;;;;4968947;28;20458;-70
2022/02/03 21:36:21;;;;;;;;;;;;;;;;;;4959775;28;20373;-69
2022/02/03 21:39:05;;;;;;;;;;;;;;;;;;4962898;28;19913;-69
2022/02/03 21:41:31;;;;;;;;;;;;;;;;;;4966824;28;19933;-73
2022/02/03 21:44:00;;;;;;;;;;;;;;;;;;4962945;28;19914;-69
2022/02/03 21:46:26;;;;;;;;;;;;;;;;;;4971211;28;19914;-69
2022/02/03 21:48:52;;;;;;;;;;;;;;;;;;4963209;28;20030;-70
2022/02/03 21:51:22;;;;;;;;;;;;;;;;;;4964528;28;22186;-68
2022/02/03 21:53:58;;;;;;;;;;;;;;;;;;4970361;28;19949;-69
2022/02/03 21:56:24;;;;;;;;;;;;;;;;;;4968600;28;20000;-69
2022/02/03 21:58:50;;;;;;;;;;;;;;;;;;4953217;28;20820;-68
2022/02/03 22:01:19;;;;;;;;;;;;;;;;;;4967281;28;21711;-70
2022/02/03 22:06:34;;;;;;;;;;;;;;;;;;4907740;29;19926;-68
2022/02/03 22:09:02;;;;;;;;;;;;;;;;;;4906943;28;19914;-69
2022/02/03 22:11:28;;;;;;;;;;;;;;;;;;4893255;29;19981;-69
2022/02/03 22:13:55;;;;;;;;;;;;;;;;;;4911241;29;19926;-69
2022/02/03 22:16:25;;;;;;;;;;;;;;;;;;4908299;29;19953;-69
2022/02/03 22:18:53;;;;;;;;;;;;;;;;;;4913057;29;20357;-68
2022/02/03 22:21:41;;;;;;;;;;;;;;;;;;4893178;29;20207;-69
2022/02/03 22:24:21;;;;;;;;;;;;;;;;;;4902820;29;19923;-70
2022/02/03 22:45:49;;;;;;;;;;;;;;;;;;5006016;28;19920;-68
2022/02/03 22:48:23;;;;;;;;;;;;;;;;;;4996332;28;19917;-69
2022/02/03 22:50:48;;;;;;;;;;;;;;;;;;5007142;28;19943;-69
2022/02/03 22:53:14;;;;;;;;;;;;;;;;;;4991341;28;19919;-68
2022/02/03 22:55:40;;;;;;;;;;;;;;;;;;4994680;28;19916;-69
2022/02/03 22:58:35;;;;;;;;;;;;;;;;;;5006827;28;20449;-68
2022/02/03 23:01:00;;;;;;;;;;;;;;;;;;5011005;28;19917;-70
2022/02/03 23:03:26;;;;;;;;;;;;;;;;;;5012459;28;20517;-69
2022/02/03 23:05:53;;;;;;;;;;;;;;;;;;4994038;28;20008;-69
2022/02/03 23:08:23;;;;;;;;;;;;;;;;;;5008997;28;19960;-70
2022/02/03 23:24:12;;;;;;;;;;;;;;;;;;4933985;28;20005;-68
2022/02/03 23:26:38;;;;;;;;;;;;;;;;;;4945674;28;20025;-69
2022/02/03 23:29:09;;;;;;;;;;;;;;;;;;4932411;28;20444;-69
2022/02/03 23:32:19;;;;;;;;;;;;;;;;;;4944084;28;20000;-68
2022/02/03 23:34:27;;;;;;;;;;;;;;;;;;4939156;28;19914;-69
2022/02/03 23:36:53;;;;;;;;;;;;;;;;;;4947025;28;19914;-69
2022/02/03 23:39:27;;;;;;;;;;;;;;;;;;4937573;28;19914;-68
2022/02/03 23:44:35;;;;;;;;;;;;;;;;;;4943258;28;19918;-69
2022/02/03 23:48:01;;;;;;;;;;;;;;;;;;4942013;28;19977;-69
